sensor_id;sensor_type;location;lat;lon;timestamp;P1;durP1;ratioP1;P2;durP2;ratioP2
9759;SDS011;4919;48.792;9.202;2023-03-21T00:01:12;20.43;;;16.67;;
9759;SDS011;4919;48.792;9.202;2023-03-21T00:03:57;20.30;;;16.57;;
9759;SDS011;4919;48.792;9.202;2023-03-21T00:06:42;20.87;;;16.57;;
9759;SDS011;4919;48.792;9.202;2023-03-21T00:09:27;21.97;;;16.63;;
9759;SDS011;4919;48.792;9.202;2023-03-21T00:12:12;18.97;;;16.27;;
9759;SDS011;4919;48.792;9.202;2023-03-21T00:14:57;19.60;;;16.20;;
9759;SDS011;4919;48.792;9.202;2023-03-21T00:17:42;21.50;;;17.23;;
9759;SDS011;4919;48.792;9.202;2023-03-21T00:20:30;19.50;;;16.10;;
9759;SDS011;4919;48.792;9.202;2023-03-21T00:23:16;20.80;;;15.87;;
9759;SDS011;4919;48.792;9.202;2023-03-21T00:26:01;18.87;;;14.97;;
9759;SDS011;4919;48.792;9.202;2023-03-21T00:28:46;18.73;;;16.00;;
9759;SDS011;4919;48.792;9.202;2023-03-21T00:31:31;19.30;;;16.30;;
9759;SDS011;4919;48.792;9.202;2023-03-21T00:34:16;20.17;;;15.60;;
9759;SDS011;4919;48.792;9.202;2023-03-21T00:37:01;18.70;;;15.30;;
9759;SDS011;4919;48.792;9.202;2023-03-21T00:39:46;17.87;;;15.03;;
9759;SDS011;4919;48.792;9.202;2023-03-21T00:42:31;17.97;;;14.90;;
9759;SDS011;4919;48.792;9.202;2023-03-21T00:45:16;17.87;;;14.90;;
9759;SDS011;4919;48.792;9.202;2023-03-21T00:48:01;18.30;;;14.90;;
9759;SDS011;4919;48.792;9.202;2023-03-21T00:50:46;18.50;;;15.30;;
9759;SDS011;4919;48.792;9.202;2023-03-21T00:53:31;20.47;;;15.80;;
9759;SDS011;4919;48.792;9.202;2023-03-21T00:56:16;21.77;;;16.77;;
9759;SDS011;4919;48.792;9.202;2023-03-21T00:59:00;20.73;;;16.13;;
9759;SDS011;4919;48.792;9.202;2023-03-21T01:01:46;22.97;;;16.70;;
9759;SDS011;4919;48.792;9.202;2023-03-21T01:04:32;18.83;;;16.20;;
9759;SDS011;4919;48.792;9.202;2023-03-21T01:07:17;19.87;;;16.70;;
9759;SDS011;4919;48.792;9.202;2023-03-21T01:10:02;20.27;;;16.53;;
9759;SDS011;4919;48.792;9.202;2023-03-21T01:12:47;18.67;;;15.57;;
9759;SDS011;4919;48.792;9.202;2023-03-21T01:15:32;19.67;;;16.53;;
9759;SDS011;4919;48.792;9.202;2023-03-21T01:18:18;23.67;;;18.03;;
9759;SDS011;4919;48.792;9.202;2023-03-21T01:21:07;22.37;;;17.97;;
9759;SDS011;4919;48.792;9.202;2023-03-21T01:23:55;23.20;;;17.90;;
9759;SDS011;4919;48.792;9.202;2023-03-21T01:26:40;24.70;;;17.57;;
9759;SDS011;4919;48.792;9.202;2023-03-21T01:29:25;22.73;;;17.90;;
9759;SDS011;4919;48.792;9.202;2023-03-21T01:32:10;21.63;;;17.43;;
9759;SDS011;4919;48.792;9.202;2023-03-21T01:34:55;22.40;;;18.77;;
9759;SDS011;4919;48.792;9.202;2023-03-21T01:37:40;22.37;;;17.70;;
9759;SDS011;4919;48.792;9.202;2023-03-21T01:40:25;25.67;;;19.27;;
9759;SDS011;4919;48.792;9.202;2023-03-21T01:43:18;23.80;;;18.47;;
9759;SDS011;4919;48.792;9.202;2023-03-21T01:51:52;28.63;;;21.43;;
9759;SDS011;4919;48.792;9.202;2023-03-21T01:54:41;29.93;;;22.93;;
9759;SDS011;4919;48.792;9.202;2023-03-21T01:57:31;29.77;;;22.23;;
9759;SDS011;4919;48.792;9.202;2023-03-21T02:00:23;29.37;;;23.37;;
9759;SDS011;4919;48.792;9.202;2023-03-21T02:03:09;35.57;;;24.87;;
9759;SDS011;4919;48.792;9.202;2023-03-21T02:05:55;32.73;;;24.53;;
9759;SDS011;4919;48.792;9.202;2023-03-21T02:08:43;33.17;;;24.67;;
9759;SDS011;4919;48.792;9.202;2023-03-21T02:11:28;32.17;;;23.60;;
9759;SDS011;4919;48.792;9.202;2023-03-21T02:14:14;32.23;;;23.77;;
9759;SDS011;4919;48.792;9.202;2023-03-21T02:17:08;34.63;;;24.47;;
9759;SDS011;4919;48.792;9.202;2023-03-21T02:29:59;33.30;;;24.27;;
9759;SDS011;4919;48.792;9.202;2023-03-21T02:35:50;33.73;;;23.87;;
9759;SDS011;4919;48.792;9.202;2023-03-21T02:38:59;35.23;;;24.97;;
9759;SDS011;4919;48.792;9.202;2023-03-21T02:48:37;30.10;;;24.23;;
9759;SDS011;4919;48.792;9.202;2023-03-21T02:51:39;33.97;;;25.00;;
9759;SDS011;4919;48.792;9.202;2023-03-21T02:54:27;35.73;;;23.60;;
9759;SDS011;4919;48.792;9.202;2023-03-21T02:57:18;33.83;;;23.67;;
9759;SDS011;4919;48.792;9.202;2023-03-21T03:00:04;31.80;;;24.00;;
9759;SDS011;4919;48.792;9.202;2023-03-21T03:02:49;34.33;;;23.30;;
9759;SDS011;4919;48.792;9.202;2023-03-21T03:05:35;32.87;;;23.00;;
9759;SDS011;4919;48.792;9.202;2023-03-21T03:11:38;32.20;;;22.07;;
9759;SDS011;4919;48.792;9.202;2023-03-21T03:20:18;30.97;;;22.53;;
9759;SDS011;4919;48.792;9.202;2023-03-21T03:23:22;29.10;;;21.90;;
9759;SDS011;4919;48.792;9.202;2023-03-21T03:26:08;32.90;;;22.40;;
9759;SDS011;4919;48.792;9.202;2023-03-21T03:28:57;32.60;;;21.37;;
9759;SDS011;4919;48.792;9.202;2023-03-21T03:31:48;32.10;;;22.17;;
9759;SDS011;4919;48.792;9.202;2023-03-21T03:34:39;30.03;;;22.87;;
9759;SDS011;4919;48.792;9.202;2023-03-21T03:37:28;35.47;;;22.90;;
9759;SDS011;4919;48.792;9.202;2023-03-21T03:43:09;32.37;;;22.43;;
9759;SDS011;4919;48.792;9.202;2023-03-21T03:46:05;30.03;;;21.83;;
9759;SDS011;4919;48.792;9.202;2023-03-21T03:48:57;29.33;;;21.53;;
9759;SDS011;4919;48.792;9.202;2023-03-21T03:52:07;31.47;;;22.03;;
9759;SDS011;4919;48.792;9.202;2023-03-21T03:54:56;31.47;;;21.47;;
9759;SDS011;4919;48.792;9.202;2023-03-21T03:57:41;31.20;;;21.77;;
9759;SDS011;4919;48.792;9.202;2023-03-21T04:00:27;33.40;;;22.50;;
9759;SDS011;4919;48.792;9.202;2023-03-21T04:03:16;29.23;;;21.63;;
9759;SDS011;4919;48.792;9.202;2023-03-21T04:06:00;31.73;;;22.03;;
9759;SDS011;4919;48.792;9.202;2023-03-21T04:08:45;30.67;;;22.47;;
9759;SDS011;4919;48.792;9.202;2023-03-21T04:11:30;33.27;;;21.60;;
9759;SDS011;4919;48.792;9.202;2023-03-21T04:14:15;30.90;;;20.93;;
9759;SDS011;4919;48.792;9.202;2023-03-21T04:17:00;32.67;;;21.43;;
9759;SDS011;4919;48.792;9.202;2023-03-21T04:19:45;32.13;;;21.63;;
9759;SDS011;4919;48.792;9.202;2023-03-21T04:22:29;34.67;;;23.13;;
9759;SDS011;4919;48.792;9.202;2023-03-21T04:25:15;32.97;;;22.93;;
9759;SDS011;4919;48.792;9.202;2023-03-21T04:28:00;33.97;;;22.37;;
9759;SDS011;4919;48.792;9.202;2023-03-21T04:30:45;29.93;;;21.13;;
9759;SDS011;4919;48.792;9.202;2023-03-21T04:33:30;30.77;;;21.80;;
9759;SDS011;4919;48.792;9.202;2023-03-21T04:36:14;30.57;;;21.13;;
9759;SDS011;4919;48.792;9.202;2023-03-21T04:38:59;35.70;;;21.27;;
9759;SDS011;4919;48.792;9.202;2023-03-21T04:41:44;33.00;;;21.70;;
9759;SDS011;4919;48.792;9.202;2023-03-21T04:44:29;39.93;;;23.70;;
9759;SDS011;4919;48.792;9.202;2023-03-21T04:47:15;33.83;;;22.17;;
9759;SDS011;4919;48.792;9.202;2023-03-21T04:50:00;33.40;;;22.53;;
9759;SDS011;4919;48.792;9.202;2023-03-21T04:52:45;32.80;;;21.60;;
9759;SDS011;4919;48.792;9.202;2023-03-21T04:55:30;32.93;;;22.30;;
9759;SDS011;4919;48.792;9.202;2023-03-21T04:58:15;34.80;;;21.47;;
9759;SDS011;4919;48.792;9.202;2023-03-21T05:01:00;33.10;;;22.17;;
9759;SDS011;4919;48.792;9.202;2023-03-21T05:03:44;32.37;;;21.03;;
9759;SDS011;4919;48.792;9.202;2023-03-21T05:06:29;32.63;;;20.93;;
9759;SDS011;4919;48.792;9.202;2023-03-21T05:09:14;33.73;;;21.13;;
9759;SDS011;4919;48.792;9.202;2023-03-21T05:11:59;37.10;;;22.50;;
9759;SDS011;4919;48.792;9.202;2023-03-21T05:14:44;34.80;;;22.30;;
9759;SDS011;4919;48.792;9.202;2023-03-21T05:17:29;32.10;;;21.27;;
9759;SDS011;4919;48.792;9.202;2023-03-21T05:20:14;36.23;;;22.77;;
9759;SDS011;4919;48.792;9.202;2023-03-21T05:22:59;32.60;;;21.97;;
9759;SDS011;4919;48.792;9.202;2023-03-21T05:25:44;36.87;;;22.83;;
9759;SDS011;4919;48.792;9.202;2023-03-21T05:28:29;35.33;;;22.07;;
9759;SDS011;4919;48.792;9.202;2023-03-21T05:31:14;35.67;;;23.17;;
9759;SDS011;4919;48.792;9.202;2023-03-21T05:33:59;39.37;;;23.63;;
9759;SDS011;4919;48.792;9.202;2023-03-21T05:36:44;41.40;;;24.73;;
9759;SDS011;4919;48.792;9.202;2023-03-21T05:39:29;37.13;;;23.57;;
9759;SDS011;4919;48.792;9.202;2023-03-21T05:42:14;37.10;;;23.17;;
9759;SDS011;4919;48.792;9.202;2023-03-21T05:44:59;39.13;;;24.07;;
9759;SDS011;4919;48.792;9.202;2023-03-21T05:47:44;38.63;;;24.53;;
9759;SDS011;4919;48.792;9.202;2023-03-21T05:50:29;38.90;;;23.50;;
9759;SDS011;4919;48.792;9.202;2023-03-21T05:53:14;43.67;;;24.13;;
9759;SDS011;4919;48.792;9.202;2023-03-21T05:55:58;39.63;;;24.03;;
9759;SDS011;4919;48.792;9.202;2023-03-21T05:58:43;41.63;;;25.50;;
9759;SDS011;4919;48.792;9.202;2023-03-21T06:01:28;43.00;;;24.90;;
9759;SDS011;4919;48.792;9.202;2023-03-21T06:04:13;40.60;;;25.40;;
9759;SDS011;4919;48.792;9.202;2023-03-21T06:06:58;38.33;;;23.80;;
9759;SDS011;4919;48.792;9.202;2023-03-21T06:09:43;40.80;;;23.13;;
9759;SDS011;4919;48.792;9.202;2023-03-21T06:12:28;36.70;;;23.77;;
9759;SDS011;4919;48.792;9.202;2023-03-21T06:15:13;39.97;;;23.63;;
9759;SDS011;4919;48.792;9.202;2023-03-21T06:17:58;41.30;;;24.03;;
9759;SDS011;4919;48.792;9.202;2023-03-21T06:20:43;41.03;;;24.47;;
9759;SDS011;4919;48.792;9.202;2023-03-21T06:23:28;38.57;;;25.17;;
9759;SDS011;4919;48.792;9.202;2023-03-21T06:26:13;36.17;;;23.40;;
9759;SDS011;4919;48.792;9.202;2023-03-21T06:28:57;36.67;;;23.43;;
9759;SDS011;4919;48.792;9.202;2023-03-21T06:31:42;34.27;;;22.03;;
9759;SDS011;4919;48.792;9.202;2023-03-21T06:34:27;39.33;;;23.43;;
9759;SDS011;4919;48.792;9.202;2023-03-21T06:37:12;36.53;;;23.07;;
9759;SDS011;4919;48.792;9.202;2023-03-21T06:39:57;36.33;;;23.43;;
9759;SDS011;4919;48.792;9.202;2023-03-21T06:42:42;38.77;;;23.57;;
9759;SDS011;4919;48.792;9.202;2023-03-21T06:45:27;39.37;;;24.00;;
9759;SDS011;4919;48.792;9.202;2023-03-21T06:48:12;40.10;;;23.53;;
9759;SDS011;4919;48.792;9.202;2023-03-21T06:50:57;39.77;;;23.93;;
9759;SDS011;4919;48.792;9.202;2023-03-21T06:53:42;40.57;;;24.20;;
9759;SDS011;4919;48.792;9.202;2023-03-21T06:56:27;39.70;;;24.07;;
9759;SDS011;4919;48.792;9.202;2023-03-21T06:59:11;40.13;;;24.13;;
9759;SDS011;4919;48.792;9.202;2023-03-21T07:01:57;41.97;;;24.20;;
9759;SDS011;4919;48.792;9.202;2023-03-21T07:04:42;38.67;;;24.30;;
9759;SDS011;4919;48.792;9.202;2023-03-21T07:07:27;39.97;;;24.47;;
9759;SDS011;4919;48.792;9.202;2023-03-21T07:10:12;38.43;;;24.33;;
9759;SDS011;4919;48.792;9.202;2023-03-21T07:13:00;44.50;;;25.00;;
9759;SDS011;4919;48.792;9.202;2023-03-21T07:15:44;42.50;;;24.87;;
9759;SDS011;4919;48.792;9.202;2023-03-21T07:18:29;40.27;;;25.07;;
9759;SDS011;4919;48.792;9.202;2023-03-21T07:21:14;40.47;;;24.63;;
9759;SDS011;4919;48.792;9.202;2023-03-21T07:23:59;42.10;;;24.73;;
9759;SDS011;4919;48.792;9.202;2023-03-21T07:26:44;44.60;;;25.20;;
9759;SDS011;4919;48.792;9.202;2023-03-21T07:29:29;41.70;;;25.23;;
9759;SDS011;4919;48.792;9.202;2023-03-21T07:32:14;45.97;;;26.03;;
9759;SDS011;4919;48.792;9.202;2023-03-21T07:34:59;42.87;;;26.07;;
9759;SDS011;4919;48.792;9.202;2023-03-21T07:37:44;46.23;;;25.60;;
9759;SDS011;4919;48.792;9.202;2023-03-21T07:40:29;45.87;;;24.87;;
9759;SDS011;4919;48.792;9.202;2023-03-21T07:43:15;45.43;;;26.63;;
9759;SDS011;4919;48.792;9.202;2023-03-21T07:46:01;41.60;;;24.67;;
9759;SDS011;4919;48.792;9.202;2023-03-21T07:48:45;43.47;;;26.03;;
9759;SDS011;4919;48.792;9.202;2023-03-21T07:51:30;45.40;;;25.43;;
9759;SDS011;4919;48.792;9.202;2023-03-21T07:54:15;41.73;;;25.20;;
9759;SDS011;4919;48.792;9.202;2023-03-21T07:57:00;44.10;;;26.10;;
9759;SDS011;4919;48.792;9.202;2023-03-21T07:59:45;41.73;;;25.53;;
9759;SDS011;4919;48.792;9.202;2023-03-21T08:02:30;44.70;;;24.97;;
9759;SDS011;4919;48.792;9.202;2023-03-21T08:05:15;41.70;;;24.13;;
9759;SDS011;4919;48.792;9.202;2023-03-21T08:08:00;42.77;;;25.60;;
9759;SDS011;4919;48.792;9.202;2023-03-21T08:10:45;42.70;;;25.80;;
9759;SDS011;4919;48.792;9.202;2023-03-21T08:13:30;41.00;;;25.57;;
9759;SDS011;4919;48.792;9.202;2023-03-21T08:16:15;41.53;;;24.53;;
9759;SDS011;4919;48.792;9.202;2023-03-21T08:19:00;38.80;;;23.80;;
9759;SDS011;4919;48.792;9.202;2023-03-21T08:21:45;38.17;;;24.03;;
9759;SDS011;4919;48.792;9.202;2023-03-21T08:24:30;38.57;;;23.53;;
9759;SDS011;4919;48.792;9.202;2023-03-21T08:27:16;42.60;;;25.47;;
9759;SDS011;4919;48.792;9.202;2023-03-21T08:30:00;42.40;;;24.40;;
9759;SDS011;4919;48.792;9.202;2023-03-21T08:32:45;39.67;;;24.33;;
9759;SDS011;4919;48.792;9.202;2023-03-21T08:35:30;38.50;;;23.43;;
9759;SDS011;4919;48.792;9.202;2023-03-21T08:38:15;39.17;;;23.47;;
9759;SDS011;4919;48.792;9.202;2023-03-21T08:41:00;44.27;;;24.73;;
9759;SDS011;4919;48.792;9.202;2023-03-21T08:43:45;39.93;;;24.33;;
9759;SDS011;4919;48.792;9.202;2023-03-21T08:46:31;44.57;;;25.87;;
9759;SDS011;4919;48.792;9.202;2023-03-21T08:49:16;38.30;;;23.93;;
9759;SDS011;4919;48.792;9.202;2023-03-21T08:52:01;39.30;;;24.40;;
9759;SDS011;4919;48.792;9.202;2023-03-21T08:54:46;41.77;;;25.87;;
9759;SDS011;4919;48.792;9.202;2023-03-21T08:57:31;49.30;;;27.50;;
9759;SDS011;4919;48.792;9.202;2023-03-21T09:00:16;42.30;;;25.23;;
9759;SDS011;4919;48.792;9.202;2023-03-21T09:03:01;42.33;;;26.00;;
9759;SDS011;4919;48.792;9.202;2023-03-21T09:05:46;45.30;;;26.13;;
9759;SDS011;4919;48.792;9.202;2023-03-21T09:08:31;49.83;;;26.20;;
9759;SDS011;4919;48.792;9.202;2023-03-21T09:11:16;44.07;;;25.70;;
9759;SDS011;4919;48.792;9.202;2023-03-21T09:14:01;44.03;;;26.80;;
9759;SDS011;4919;48.792;9.202;2023-03-21T09:16:45;43.03;;;25.63;;
9759;SDS011;4919;48.792;9.202;2023-03-21T09:19:30;41.20;;;25.57;;
9759;SDS011;4919;48.792;9.202;2023-03-21T09:22:15;40.83;;;25.67;;
9759;SDS011;4919;48.792;9.202;2023-03-21T09:25:00;38.53;;;24.60;;
9759;SDS011;4919;48.792;9.202;2023-03-21T09:27:45;39.90;;;24.83;;
9759;SDS011;4919;48.792;9.202;2023-03-21T09:30:31;35.60;;;23.80;;
9759;SDS011;4919;48.792;9.202;2023-03-21T09:33:17;36.80;;;23.53;;
9759;SDS011;4919;48.792;9.202;2023-03-21T09:36:02;33.90;;;23.70;;
9759;SDS011;4919;48.792;9.202;2023-03-21T09:38:47;34.73;;;22.77;;
9759;SDS011;4919;48.792;9.202;2023-03-21T09:47:30;34.57;;;21.73;;
9759;SDS011;4919;48.792;9.202;2023-03-21T09:50:21;29.53;;;20.33;;
9759;SDS011;4919;48.792;9.202;2023-03-21T09:53:17;31.60;;;20.37;;
9759;SDS011;4919;48.792;9.202;2023-03-21T09:56:09;30.40;;;20.53;;
9759;SDS011;4919;48.792;9.202;2023-03-21T09:58:55;27.73;;;18.90;;
9759;SDS011;4919;48.792;9.202;2023-03-21T10:01:42;28.10;;;18.83;;
9759;SDS011;4919;48.792;9.202;2023-03-21T10:04:28;29.40;;;19.60;;
9759;SDS011;4919;48.792;9.202;2023-03-21T10:07:13;28.73;;;18.57;;
9759;SDS011;4919;48.792;9.202;2023-03-21T10:09:59;28.93;;;18.67;;
9759;SDS011;4919;48.792;9.202;2023-03-21T10:12:46;25.43;;;17.77;;
9759;SDS011;4919;48.792;9.202;2023-03-21T10:15:33;26.57;;;18.80;;
9759;SDS011;4919;48.792;9.202;2023-03-21T10:18:20;26.57;;;18.53;;
9759;SDS011;4919;48.792;9.202;2023-03-21T10:21:10;28.60;;;18.97;;
9759;SDS011;4919;48.792;9.202;2023-03-21T10:24:00;29.10;;;19.13;;
9759;SDS011;4919;48.792;9.202;2023-03-21T10:26:45;30.27;;;19.20;;
9759;SDS011;4919;48.792;9.202;2023-03-21T10:29:32;28.30;;;19.63;;
9759;SDS011;4919;48.792;9.202;2023-03-21T10:32:27;26.23;;;17.50;;
9759;SDS011;4919;48.792;9.202;2023-03-21T10:35:12;24.37;;;17.07;;
9759;SDS011;4919;48.792;9.202;2023-03-21T10:37:58;28.90;;;18.70;;
9759;SDS011;4919;48.792;9.202;2023-03-21T10:40:44;25.20;;;16.97;;
9759;SDS011;4919;48.792;9.202;2023-03-21T10:43:30;28.40;;;18.73;;
9759;SDS011;4919;48.792;9.202;2023-03-21T10:46:18;25.20;;;17.60;;
9759;SDS011;4919;48.792;9.202;2023-03-21T10:49:05;26.23;;;17.87;;
9759;SDS011;4919;48.792;9.202;2023-03-21T10:51:52;27.13;;;18.27;;
9759;SDS011;4919;48.792;9.202;2023-03-21T10:54:40;28.50;;;18.73;;
9759;SDS011;4919;48.792;9.202;2023-03-21T10:57:25;24.57;;;17.43;;
9759;SDS011;4919;48.792;9.202;2023-03-21T11:00:10;22.23;;;16.50;;
9759;SDS011;4919;48.792;9.202;2023-03-21T11:03:02;25.87;;;17.20;;
9759;SDS011;4919;48.792;9.202;2023-03-21T11:05:52;24.87;;;17.07;;
9759;SDS011;4919;48.792;9.202;2023-03-21T11:08:40;22.47;;;16.63;;
9759;SDS011;4919;48.792;9.202;2023-03-21T11:11:36;22.53;;;16.30;;
9759;SDS011;4919;48.792;9.202;2023-03-21T11:14:31;24.40;;;17.00;;
9759;SDS011;4919;48.792;9.202;2023-03-21T11:17:27;19.70;;;15.37;;
9759;SDS011;4919;48.792;9.202;2023-03-21T11:20:15;22.10;;;15.03;;
9759;SDS011;4919;48.792;9.202;2023-03-21T11:23:02;17.93;;;14.20;;
9759;SDS011;4919;48.792;9.202;2023-03-21T11:25:47;20.13;;;14.17;;
9759;SDS011;4919;48.792;9.202;2023-03-21T11:28:40;18.70;;;14.33;;
9759;SDS011;4919;48.792;9.202;2023-03-21T11:31:37;18.20;;;13.87;;
9759;SDS011;4919;48.792;9.202;2023-03-21T11:34:31;20.73;;;14.40;;
9759;SDS011;4919;48.792;9.202;2023-03-21T11:40:17;18.87;;;13.70;;
9759;SDS011;4919;48.792;9.202;2023-03-21T11:43:30;17.97;;;13.80;;
9759;SDS011;4919;48.792;9.202;2023-03-21T11:46:25;15.67;;;12.57;;
9759;SDS011;4919;48.792;9.202;2023-03-21T11:49:12;16.83;;;13.00;;
9759;SDS011;4919;48.792;9.202;2023-03-21T12:04:11;16.10;;;12.80;;
9759;SDS011;4919;48.792;9.202;2023-03-21T12:20:22;17.47;;;12.47;;
9759;SDS011;4919;48.792;9.202;2023-03-21T12:26:39;17.33;;;11.93;;
9759;SDS011;4919;48.792;9.202;2023-03-21T12:29:41;14.10;;;11.00;;
9759;SDS011;4919;48.792;9.202;2023-03-21T12:32:38;13.87;;;10.70;;
9759;SDS011;4919;48.792;9.202;2023-03-21T12:38:40;14.13;;;10.20;;
9759;SDS011;4919;48.792;9.202;2023-03-21T12:41:38;13.63;;;10.57;;
9759;SDS011;4919;48.792;9.202;2023-03-21T12:44:25;13.83;;;10.70;;
9759;SDS011;4919;48.792;9.202;2023-03-21T12:47:15;13.97;;;10.57;;
9759;SDS011;4919;48.792;9.202;2023-03-21T12:50:08;13.97;;;10.20;;
9759;SDS011;4919;48.792;9.202;2023-03-21T12:53:25;11.30;;;9.53;;
9759;SDS011;4919;48.792;9.202;2023-03-21T12:56:36;12.67;;;9.47;;
9759;SDS011;4919;48.792;9.202;2023-03-21T13:02:31;11.37;;;9.10;;
9759;SDS011;4919;48.792;9.202;2023-03-21T13:05:20;11.43;;;9.20;;
9759;SDS011;4919;48.792;9.202;2023-03-21T13:11:27;14.03;;;9.07;;
9759;SDS011;4919;48.792;9.202;2023-03-21T13:14:19;11.57;;;8.97;;
9759;SDS011;4919;48.792;9.202;2023-03-21T13:17:10;11.43;;;8.23;;
9759;SDS011;4919;48.792;9.202;2023-03-21T13:22:59;11.33;;;8.80;;
9759;SDS011;4919;48.792;9.202;2023-03-21T13:25:45;11.30;;;8.43;;
9759;SDS011;4919;48.792;9.202;2023-03-21T13:28:32;11.60;;;8.20;;
9759;SDS011;4919;48.792;9.202;2023-03-21T13:34:06;10.13;;;8.43;;
9759;SDS011;4919;48.792;9.202;2023-03-21T13:36:52;10.87;;;8.83;;
9759;SDS011;4919;48.792;9.202;2023-03-21T13:39:42;11.17;;;8.80;;
9759;SDS011;4919;48.792;9.202;2023-03-21T13:42:31;11.77;;;8.20;;
9759;SDS011;4919;48.792;9.202;2023-03-21T13:45:25;10.57;;;8.40;;
9759;SDS011;4919;48.792;9.202;2023-03-21T13:48:24;11.97;;;8.40;;
9759;SDS011;4919;48.792;9.202;2023-03-21T13:51:10;11.57;;;8.10;;
9759;SDS011;4919;48.792;9.202;2023-03-21T13:54:02;12.63;;;8.33;;
9759;SDS011;4919;48.792;9.202;2023-03-21T13:56:51;10.90;;;8.67;;
9759;SDS011;4919;48.792;9.202;2023-03-21T13:59:40;9.60;;;7.83;;
9759;SDS011;4919;48.792;9.202;2023-03-21T14:02:28;10.87;;;8.37;;
9759;SDS011;4919;48.792;9.202;2023-03-21T14:05:21;10.93;;;8.60;;
9759;SDS011;4919;48.792;9.202;2023-03-21T14:08:09;11.13;;;8.40;;
9759;SDS011;4919;48.792;9.202;2023-03-21T14:11:05;12.70;;;8.90;;
9759;SDS011;4919;48.792;9.202;2023-03-21T14:13:51;13.23;;;9.00;;
9759;SDS011;4919;48.792;9.202;2023-03-21T14:16:37;11.47;;;8.70;;
9759;SDS011;4919;48.792;9.202;2023-03-21T14:19:29;11.83;;;8.60;;
9759;SDS011;4919;48.792;9.202;2023-03-21T14:22:15;9.00;;;7.80;;
9759;SDS011;4919;48.792;9.202;2023-03-21T14:25:00;11.13;;;8.10;;
9759;SDS011;4919;48.792;9.202;2023-03-21T14:27:49;10.23;;;7.23;;
9759;SDS011;4919;48.792;9.202;2023-03-21T14:30:38;11.70;;;7.97;;
9759;SDS011;4919;48.792;9.202;2023-03-21T14:36:29;9.90;;;8.10;;
9759;SDS011;4919;48.792;9.202;2023-03-21T14:39:16;8.50;;;7.60;;
9759;SDS011;4919;48.792;9.202;2023-03-21T14:42:06;9.20;;;7.57;;
9759;SDS011;4919;48.792;9.202;2023-03-21T14:44:53;9.30;;;7.83;;
9759;SDS011;4919;48.792;9.202;2023-03-21T14:47:37;10.50;;;8.07;;
9759;SDS011;4919;48.792;9.202;2023-03-21T14:50:23;11.50;;;7.53;;
9759;SDS011;4919;48.792;9.202;2023-03-21T14:53:17;13.13;;;7.50;;
9759;SDS011;4919;48.792;9.202;2023-03-21T14:56:09;8.67;;;7.50;;
9759;SDS011;4919;48.792;9.202;2023-03-21T14:58:54;10.13;;;7.83;;
9759;SDS011;4919;48.792;9.202;2023-03-21T15:01:39;9.30;;;7.90;;
9759;SDS011;4919;48.792;9.202;2023-03-21T15:04:23;12.03;;;7.87;;
9759;SDS011;4919;48.792;9.202;2023-03-21T15:07:21;11.37;;;7.47;;
9759;SDS011;4919;48.792;9.202;2023-03-21T15:10:15;9.77;;;7.83;;
9759;SDS011;4919;48.792;9.202;2023-03-21T15:13:01;10.90;;;7.73;;
9759;SDS011;4919;48.792;9.202;2023-03-21T15:15:58;12.87;;;8.20;;
9759;SDS011;4919;48.792;9.202;2023-03-21T15:18:43;9.17;;;8.20;;
9759;SDS011;4919;48.792;9.202;2023-03-21T15:21:30;10.47;;;8.33;;
9759;SDS011;4919;48.792;9.202;2023-03-21T15:25:02;10.50;;;8.63;;
9759;SDS011;4919;48.792;9.202;2023-03-21T15:27:30;9.10;;;8.10;;
9759;SDS011;4919;48.792;9.202;2023-03-21T15:30:27;12.60;;;9.00;;
9759;SDS011;4919;48.792;9.202;2023-03-21T15:33:13;10.23;;;9.00;;
9759;SDS011;4919;48.792;9.202;2023-03-21T15:35:59;10.33;;;9.23;;
9759;SDS011;4919;48.792;9.202;2023-03-21T15:38:43;10.07;;;8.97;;
9759;SDS011;4919;48.792;9.202;2023-03-21T15:41:30;12.27;;;8.33;;
9759;SDS011;4919;48.792;9.202;2023-03-21T15:44:15;12.13;;;9.90;;
9759;SDS011;4919;48.792;9.202;2023-03-21T15:47:04;12.67;;;10.03;;
9759;SDS011;4919;48.792;9.202;2023-03-21T15:49:52;11.23;;;10.07;;
9759;SDS011;4919;48.792;9.202;2023-03-21T15:52:37;15.23;;;11.37;;
9759;SDS011;4919;48.792;9.202;2023-03-21T15:55:23;14.23;;;12.57;;
9759;SDS011;4919;48.792;9.202;2023-03-21T15:58:13;14.60;;;13.00;;
9759;SDS011;4919;48.792;9.202;2023-03-21T16:01:02;15.80;;;14.10;;
9759;SDS011;4919;48.792;9.202;2023-03-21T16:04:04;16.03;;;14.33;;
9759;SDS011;4919;48.792;9.202;2023-03-21T16:07:01;16.03;;;13.93;;
9759;SDS011;4919;48.792;9.202;2023-03-21T16:10:00;17.03;;;14.27;;
9759;SDS011;4919;48.792;9.202;2023-03-21T16:12:47;15.93;;;14.23;;
9759;SDS011;4919;48.792;9.202;2023-03-21T16:15:32;18.20;;;14.00;;
9759;SDS011;4919;48.792;9.202;2023-03-21T16:18:17;17.93;;;14.17;;
9759;SDS011;4919;48.792;9.202;2023-03-21T16:21:02;16.30;;;14.33;;
9759;SDS011;4919;48.792;9.202;2023-03-21T16:23:47;17.50;;;14.57;;
9759;SDS011;4919;48.792;9.202;2023-03-21T16:26:35;16.43;;;14.73;;
9759;SDS011;4919;48.792;9.202;2023-03-21T16:29:21;18.57;;;15.13;;
9759;SDS011;4919;48.792;9.202;2023-03-21T16:32:10;17.53;;;15.60;;
9759;SDS011;4919;48.792;9.202;2023-03-21T16:34:58;20.70;;;15.77;;
9759;SDS011;4919;48.792;9.202;2023-03-21T16:37:43;17.43;;;15.53;;
9759;SDS011;4919;48.792;9.202;2023-03-21T16:40:29;19.17;;;15.23;;
9759;SDS011;4919;48.792;9.202;2023-03-21T16:43:16;17.47;;;15.67;;
9759;SDS011;4919;48.792;9.202;2023-03-21T16:46:01;18.30;;;16.30;;
9759;SDS011;4919;48.792;9.202;2023-03-21T16:48:47;18.07;;;15.40;;
9759;SDS011;4919;48.792;9.202;2023-03-21T16:51:34;16.40;;;14.70;;
9759;SDS011;4919;48.792;9.202;2023-03-21T16:54:19;18.83;;;15.83;;
9759;SDS011;4919;48.792;9.202;2023-03-21T16:57:05;17.37;;;15.33;;
9759;SDS011;4919;48.792;9.202;2023-03-21T16:59:52;20.17;;;16.80;;
9759;SDS011;4919;48.792;9.202;2023-03-21T17:02:37;17.87;;;16.07;;
9759;SDS011;4919;48.792;9.202;2023-03-21T17:05:23;18.53;;;16.50;;
9759;SDS011;4919;48.792;9.202;2023-03-21T17:08:16;19.20;;;16.67;;
9759;SDS011;4919;48.792;9.202;2023-03-21T17:11:02;18.30;;;16.27;;
9759;SDS011;4919;48.792;9.202;2023-03-21T17:13:48;19.40;;;17.30;;
9759;SDS011;4919;48.792;9.202;2023-03-21T17:16:34;18.30;;;16.23;;
9759;SDS011;4919;48.792;9.202;2023-03-21T17:19:19;19.70;;;16.90;;
9759;SDS011;4919;48.792;9.202;2023-03-21T17:22:05;18.57;;;16.47;;
9759;SDS011;4919;48.792;9.202;2023-03-21T17:24:50;18.97;;;16.03;;
9759;SDS011;4919;48.792;9.202;2023-03-21T17:27:35;18.37;;;16.37;;
9759;SDS011;4919;48.792;9.202;2023-03-21T17:33:10;18.70;;;15.63;;
9759;SDS011;4919;48.792;9.202;2023-03-21T17:35:55;18.37;;;16.40;;
9759;SDS011;4919;48.792;9.202;2023-03-21T17:38:40;18.23;;;15.43;;
9759;SDS011;4919;48.792;9.202;2023-03-21T17:41:26;18.50;;;16.00;;
9759;SDS011;4919;48.792;9.202;2023-03-21T17:44:11;17.63;;;15.83;;
9759;SDS011;4919;48.792;9.202;2023-03-21T17:46:56;17.73;;;15.83;;
9759;SDS011;4919;48.792;9.202;2023-03-21T17:49:41;18.53;;;16.53;;
9759;SDS011;4919;48.792;9.202;2023-03-21T17:52:26;17.83;;;15.73;;
9759;SDS011;4919;48.792;9.202;2023-03-21T17:55:11;17.37;;;15.57;;
9759;SDS011;4919;48.792;9.202;2023-03-21T17:57:57;17.33;;;15.43;;
9759;SDS011;4919;48.792;9.202;2023-03-21T18:00:42;19.07;;;16.00;;
9759;SDS011;4919;48.792;9.202;2023-03-21T18:03:27;20.20;;;16.43;;
9759;SDS011;4919;48.792;9.202;2023-03-21T18:06:18;19.33;;;16.87;;
9759;SDS011;4919;48.792;9.202;2023-03-21T18:09:04;18.83;;;16.13;;
9759;SDS011;4919;48.792;9.202;2023-03-21T18:11:50;20.53;;;17.17;;
9759;SDS011;4919;48.792;9.202;2023-03-21T18:14:35;19.30;;;17.20;;
9759;SDS011;4919;48.792;9.202;2023-03-21T18:17:20;20.87;;;17.83;;
9759;SDS011;4919;48.792;9.202;2023-03-21T18:20:05;22.23;;;17.43;;
9759;SDS011;4919;48.792;9.202;2023-03-21T18:22:51;22.53;;;17.03;;
9759;SDS011;4919;48.792;9.202;2023-03-21T18:25:36;21.13;;;16.43;;
9759;SDS011;4919;48.792;9.202;2023-03-21T18:28:21;18.03;;;15.67;;